DLH713 RKSI-EDDF
Flight info
| Callsign | DLH713 |
|---|---|
| Flight time | N/A |
| Altitude | 34100 |
| Route | BINIL3H BINIL Y697 AGAVO A591 IKEKA W4 HCH W200 DOVIV W55 PAMRU W34 VYK B215 IDGIS/K0920S1100 B215 LEBOM W104 VEXEB W47 IDSOT W48 DKO W66 NUKTI B215 DUBUV/K0891S1160 B215 FKG A368 SARIN/K0889F380 N161 MASAV/K0913F400 N161 GASBI/N0493F400 N161 LEYLA N644 ADEKI DCT BADIR DCT LAGAS DCT FOQUS DCT SARPI UM10 GOKPA UL746 ODERO DCT OPT DCT TEGRI DCT ARSIN DCT SUBEN DCT AKINI T161 DEBHI SPESA5B |
| Aircraft | A359/H-SDE2E3GHIJ3J4J5LM1ORWXY/LB1D1 |
Departure
| Time | N/A |
|---|---|
| Airport | Incheon International Airport (RKSI) |
Arrival
| Time | 2026-05-07 17:46 |
|---|---|
| Airport | Frankfurt Main Airport (EDDF) |
| Time | Latitude | Longitude | Altitude | Speed | Heading |
|---|---|---|---|---|---|
| 2026-05-07 17:15 | 48.63894 | 12.56057 | 40036 ft | 474 kts | 288° |
| 2026-05-07 17:15 | 48.65087 | 12.51400 | 40035 ft | 474 kts | 288° |
| 2026-05-07 17:16 | 48.67466 | 12.42089 | 40034 ft | 474 kts | 288° |
| 2026-05-07 17:16 | 48.69831 | 12.32793 | 40036 ft | 474 kts | 288° |
| 2026-05-07 17:17 | 48.72191 | 12.23475 | 40036 ft | 474 kts | 288° |
| 2026-05-07 17:17 | 48.74490 | 12.14107 | 40036 ft | 473 kts | 284° |
| 2026-05-07 17:18 | 48.75870 | 12.04406 | 40037 ft | 471 kts | 278° |
| 2026-05-07 17:18 | 48.76942 | 11.94677 | 40036 ft | 471 kts | 277° |
| 2026-05-07 17:19 | 48.77967 | 11.84879 | 40027 ft | 471 kts | 277° |
| 2026-05-07 17:19 | 48.78995 | 11.75084 | 40026 ft | 471 kts | 277° |
| 2026-05-07 17:20 | 48.80029 | 11.65276 | 40027 ft | 471 kts | 277° |
| 2026-05-07 17:20 | 48.81063 | 11.55445 | 40027 ft | 471 kts | 277° |
| 2026-05-07 17:21 | 48.82076 | 11.45620 | 40021 ft | 471 kts | 277° |
| 2026-05-07 17:21 | 48.82910 | 11.37449 | 40017 ft | 471 kts | 277° |
| 2026-05-07 17:22 | 48.84254 | 11.27741 | 40018 ft | 474 kts | 287° |
| 2026-05-07 17:22 | 48.87621 | 11.18064 | 39463 ft | 478 kts | 306° |
| 2026-05-07 17:23 | 48.89869 | 11.14298 | 38715 ft | 482 kts | 313° |
| 2026-05-07 17:23 | 48.92299 | 11.10776 | 38003 ft | 484 kts | 315° |
| 2026-05-07 17:23 | 48.94790 | 11.07325 | 37289 ft | 484 kts | 315° |
| 2026-05-07 17:23 | 48.97289 | 11.03918 | 36581 ft | 483 kts | 316° |
| 2026-05-07 17:24 | 48.99789 | 11.00505 | 35865 ft | 481 kts | 315° |
| 2026-05-07 17:24 | 49.02274 | 10.97077 | 35140 ft | 481 kts | 315° |
| 2026-05-07 17:24 | 49.04749 | 10.93626 | 34337 ft | 483 kts | 315° |
| 2026-05-07 17:24 | 49.07225 | 10.90150 | 33493 ft | 484 kts | 315° |
| 2026-05-07 17:25 | 49.09699 | 10.86666 | 32629 ft | 486 kts | 316° |
| 2026-05-07 17:25 | 49.12183 | 10.83154 | 31738 ft | 486 kts | 316° |
| 2026-05-07 17:25 | 49.14639 | 10.79670 | 30826 ft | 487 kts | 316° |
| 2026-05-07 17:25 | 49.17119 | 10.76145 | 29869 ft | 488 kts | 317° |
| 2026-05-07 17:26 | 49.19599 | 10.72618 | 28914 ft | 480 kts | 317° |
| 2026-05-07 17:26 | 49.21950 | 10.69137 | 28228 ft | 457 kts | 314° |
| 2026-05-07 17:26 | 49.24140 | 10.65644 | 27595 ft | 454 kts | 313° |
| 2026-05-07 17:26 | 49.26318 | 10.62151 | 26948 ft | 451 kts | 313° |
| 2026-05-07 17:27 | 49.28484 | 10.58695 | 26295 ft | 449 kts | 314° |
| 2026-05-07 17:27 | 49.30641 | 10.55267 | 25648 ft | 446 kts | 314° |
| 2026-05-07 17:27 | 49.32790 | 10.51856 | 25001 ft | 443 kts | 313° |
| 2026-05-07 17:27 | 49.34917 | 10.48471 | 24360 ft | 440 kts | 313° |
| 2026-05-07 17:28 | 49.36865 | 10.44892 | 23797 ft | 435 kts | 306° |
| 2026-05-07 17:28 | 49.38638 | 10.41085 | 23367 ft | 440 kts | 304° |
| 2026-05-07 17:28 | 49.40395 | 10.37226 | 22918 ft | 441 kts | 304° |
| 2026-05-07 17:28 | 49.42152 | 10.33361 | 22458 ft | 439 kts | 304° |
| 2026-05-07 17:29 | 49.43895 | 10.29526 | 22013 ft | 436 kts | 304° |
| 2026-05-07 17:29 | 49.45625 | 10.25720 | 21564 ft | 433 kts | 304° |
| 2026-05-07 17:29 | 49.47345 | 10.21931 | 21118 ft | 430 kts | 304° |
| 2026-05-07 17:29 | 49.49053 | 10.18166 | 20680 ft | 428 kts | 304° |
| 2026-05-07 17:30 | 49.50749 | 10.14422 | 20247 ft | 425 kts | 304° |
| 2026-05-07 17:30 | 49.52430 | 10.10705 | 19806 ft | 422 kts | 304° |
| 2026-05-07 17:30 | 49.54103 | 10.07009 | 19373 ft | 419 kts | 305° |
| 2026-05-07 17:30 | 49.55765 | 10.03331 | 18952 ft | 417 kts | 304° |
| 2026-05-07 17:31 | 49.57407 | 9.99682 | 18526 ft | 414 kts | 304° |
| 2026-05-07 17:31 | 49.59043 | 9.96052 | 18104 ft | 411 kts | 305° |
| 2026-05-07 17:31 | 49.60669 | 9.92438 | 17742 ft | 408 kts | 304° |
| 2026-05-07 17:31 | 49.62256 | 9.88890 | 17489 ft | 406 kts | 304° |
| 2026-05-07 17:32 | 49.63859 | 9.85301 | 17225 ft | 406 kts | 304° |
| 2026-05-07 17:32 | 49.65458 | 9.81729 | 16987 ft | 403 kts | 304° |
| 2026-05-07 17:32 | 49.67048 | 9.78169 | 16738 ft | 402 kts | 304° |
| 2026-05-07 17:32 | 49.68097 | 9.75816 | 16572 ft | 401 kts | 304° |
| 2026-05-07 17:33 | 49.70206 | 9.71079 | 16230 ft | 399 kts | 304° |
| 2026-05-07 17:33 | 49.71778 | 9.67547 | 15987 ft | 398 kts | 304° |
| 2026-05-07 17:33 | 49.73342 | 9.64028 | 15736 ft | 396 kts | 304° |
| 2026-05-07 17:33 | 49.74894 | 9.60536 | 15458 ft | 394 kts | 304° |
| 2026-05-07 17:34 | 49.76445 | 9.57038 | 14945 ft | 392 kts | 304° |
| 2026-05-07 17:34 | 49.77977 | 9.53575 | 14342 ft | 388 kts | 304° |
| 2026-05-07 17:34 | 49.79493 | 9.50140 | 13728 ft | 384 kts | 304° |
| 2026-05-07 17:34 | 49.80969 | 9.46794 | 13130 ft | 380 kts | 304° |
| 2026-05-07 17:35 | 49.82456 | 9.43420 | 12525 ft | 377 kts | 304° |
| 2026-05-07 17:35 | 49.83930 | 9.40073 | 11929 ft | 374 kts | 304° |
| 2026-05-07 17:35 | 49.85505 | 9.36905 | 11340 ft | 370 kts | 313° |
| 2026-05-07 17:35 | 49.87428 | 9.34323 | 10778 ft | 364 kts | 322° |
| 2026-05-07 17:36 | 49.89468 | 9.32029 | 10195 ft | 357 kts | 323° |
| 2026-05-07 17:36 | 49.91478 | 9.29797 | 9607 ft | 353 kts | 323° |
| 2026-05-07 17:36 | 49.93453 | 9.27599 | 9041 ft | 347 kts | 323° |
| 2026-05-07 17:36 | 49.95388 | 9.25435 | 8465 ft | 340 kts | 323° |
| 2026-05-07 17:37 | 49.97285 | 9.23304 | 7889 ft | 334 kts | 323° |
| 2026-05-07 17:37 | 49.99145 | 9.21212 | 7348 ft | 320 kts | 323° |
| 2026-05-07 17:37 | 50.00853 | 9.19285 | 7088 ft | 287 kts | 324° |
| 2026-05-07 17:37 | 50.02398 | 9.17534 | 7044 ft | 265 kts | 323° |
| 2026-05-07 17:38 | 50.03823 | 9.15908 | 7040 ft | 242 kts | 323° |
| 2026-05-07 17:38 | 50.05171 | 9.14366 | 7051 ft | 238 kts | 323° |
| 2026-05-07 17:38 | 50.06497 | 9.12848 | 7018 ft | 236 kts | 323° |
| 2026-05-07 17:38 | 50.07823 | 9.11329 | 7002 ft | 236 kts | 323° |
| 2026-05-07 17:39 | 50.09142 | 9.09815 | 7002 ft | 236 kts | 325° |
| 2026-05-07 17:39 | 50.10434 | 9.08294 | 6988 ft | 236 kts | 323° |
| 2026-05-07 17:39 | 50.11446 | 9.06378 | 6956 ft | 237 kts | 299° |
| 2026-05-07 17:39 | 50.11993 | 9.03991 | 6504 ft | 232 kts | 287° |
| 2026-05-07 17:40 | 50.12358 | 9.01540 | 5890 ft | 233 kts | 285° |
| 2026-05-07 17:40 | 50.12698 | 8.99057 | 5381 ft | 235 kts | 285° |
| 2026-05-07 17:40 | 50.12818 | 8.96525 | 5030 ft | 237 kts | 268° |
| 2026-05-07 17:40 | 50.12688 | 8.95239 | 4888 ft | 236 kts | 260° |
| 2026-05-07 17:41 | 50.12543 | 8.94390 | 4795 ft | 236 kts | 256° |
| 2026-05-07 17:41 | 50.12012 | 8.92125 | 4533 ft | 234 kts | 252° |
| 2026-05-07 17:41 | 50.11437 | 8.89765 | 4242 ft | 233 kts | 253° |
| 2026-05-07 17:41 | 50.10885 | 8.87389 | 4019 ft | 232 kts | 253° |
| 2026-05-07 17:42 | 50.10332 | 8.85026 | 3847 ft | 233 kts | 252° |
| 2026-05-07 17:42 | 50.09743 | 8.82667 | 3569 ft | 230 kts | 252° |
| 2026-05-07 17:42 | 50.09195 | 8.80406 | 3273 ft | 217 kts | 253° |
| 2026-05-07 17:42 | 50.08692 | 8.78261 | 2999 ft | 204 kts | 253° |
| 2026-05-07 17:43 | 50.08212 | 8.76250 | 2732 ft | 191 kts | 252° |
| 2026-05-07 17:43 | 50.07765 | 8.74376 | 2474 ft | 179 kts | 252° |
| 2026-05-07 17:43 | 50.07342 | 8.72601 | 2245 ft | 171 kts | 252° |
| 2026-05-07 17:43 | 50.06936 | 8.70898 | 2019 ft | 164 kts | 249° |
| 2026-05-07 17:44 | 50.06529 | 8.69235 | 1808 ft | 164 kts | 249° |
| 2026-05-07 17:44 | 50.06145 | 8.67629 | 1591 ft | 154 kts | 249° |
| 2026-05-07 17:44 | 50.05783 | 8.66107 | 1386 ft | 145 kts | 248° |
| 2026-05-07 17:44 | 50.05443 | 8.64683 | 1205 ft | 139 kts | 248° |
| 2026-05-07 17:45 | 50.05109 | 8.63285 | 1026 ft | 137 kts | 248° |
| 2026-05-07 17:45 | 50.04775 | 8.61902 | 850 ft | 137 kts | 248° |
| 2026-05-07 17:45 | 50.04450 | 8.60513 | 673 ft | 136 kts | 249° |
| 2026-05-07 17:45 | 50.04124 | 8.59130 | 480 ft | 136 kts | 248° |
| 2026-05-07 17:46 | 50.03788 | 8.57753 | 371 ft | 134 kts | 249° |
| 2026-05-07 17:46 | 50.03529 | 8.56659 | 356 ft | 72 kts | 250° |
| 2026-05-07 17:46 | 50.03440 | 8.56248 | 361 ft | 17 kts | 261° |
| 2026-05-07 17:46 | 50.03439 | 8.56055 | 355 ft | 20 kts | 274° |
| 2026-05-07 17:47 | 50.03459 | 8.55857 | 351 ft | 13 kts | 280° |
| 2026-05-07 17:47 | 50.03469 | 8.55769 | 350 ft | 9 kts | 280° |
| 2026-05-07 17:47 | 50.03473 | 8.55739 | 351 ft | 1 kts | 280° |
| 2026-05-07 17:47 | 50.03492 | 8.55570 | 352 ft | 30 kts | 277° |
| 2026-05-07 17:48 | 50.03430 | 8.55213 | 350 ft | 36 kts | 249° |
| 2026-05-07 17:48 | 50.03342 | 8.54843 | 355 ft | 37 kts | 249° |
| 2026-05-07 17:48 | 50.03278 | 8.54574 | 344 ft | 14 kts | 250° |
| 2026-05-07 17:48 | 50.03310 | 8.54482 | 345 ft | 11 kts | 335° |
| 2026-05-07 17:49 | 50.03369 | 8.54449 | 346 ft | 3 kts | 339° |
| 2026-05-07 17:49 | 50.03374 | 8.54446 | 346 ft | 0 kts | 339° |
| 2026-05-07 17:49 | 50.03374 | 8.54445 | 346 ft | 1 kts | 339° |
| 2026-05-07 17:50 | 50.03439 | 8.54408 | 349 ft | 13 kts | 340° |
| 2026-05-07 17:50 | 50.03571 | 8.54333 | 347 ft | 13 kts | 340° |
| 2026-05-07 17:50 | 50.03577 | 8.54330 | 347 ft | 0 kts | 340° |
| 2026-05-07 17:50 | 50.03581 | 8.54328 | 347 ft | 0 kts | 340° |
| 2026-05-07 17:51 | 50.03589 | 8.54323 | 347 ft | 2 kts | 340° |
| 2026-05-07 17:51 | 50.03609 | 8.54312 | 348 ft | 2 kts | 343° |
| 2026-05-07 17:51 | 50.03633 | 8.54315 | 348 ft | 4 kts | 12° |
| 2026-05-07 17:51 | 50.03675 | 8.54390 | 348 ft | 13 kts | 68° |
| 2026-05-07 17:52 | 50.03709 | 8.54530 | 350 ft | 14 kts | 70° |
| 2026-05-07 17:52 | 50.03745 | 8.54680 | 352 ft | 15 kts | 71° |
| 2026-05-07 17:52 | 50.03787 | 8.54857 | 353 ft | 22 kts | 70° |
| 2026-05-07 17:52 | 50.03842 | 8.55089 | 355 ft | 21 kts | 70° |
| 2026-05-07 17:53 | 50.03890 | 8.55285 | 355 ft | 20 kts | 69° |
| 2026-05-07 17:53 | 50.03943 | 8.55501 | 363 ft | 22 kts | 69° |
| 2026-05-07 17:53 | 50.04001 | 8.55745 | 363 ft | 28 kts | 70° |
| 2026-05-07 17:53 | 50.04079 | 8.56077 | 362 ft | 34 kts | 70° |
| 2026-05-07 17:54 | 50.04160 | 8.56416 | 364 ft | 29 kts | 70° |
| 2026-05-07 17:54 | 50.04211 | 8.56628 | 362 ft | 17 kts | 69° |
| 2026-05-07 17:54 | 50.04254 | 8.56782 | 365 ft | 13 kts | 49° |
| 2026-05-07 17:54 | 50.04338 | 8.56825 | 372 ft | 9 kts | 11° |
| 2026-05-07 17:55 | 50.04352 | 8.56829 | 366 ft | 0 kts | 11° |
| 2026-05-07 17:55 | 50.04381 | 8.56837 | 366 ft | 11 kts | 9° |
| 2026-05-07 17:55 | 50.04453 | 8.56872 | 366 ft | 11 kts | 39° |
| 2026-05-07 17:55 | 50.04492 | 8.56992 | 363 ft | 15 kts | 66° |
| 2026-05-07 17:56 | 50.04529 | 8.57150 | 369 ft | 17 kts | 69° |
| 2026-05-07 17:56 | 50.04573 | 8.57336 | 367 ft | 20 kts | 70° |
| 2026-05-07 17:56 | 50.04623 | 8.57547 | 364 ft | 22 kts | 69° |
| 2026-05-07 17:56 | 50.04676 | 8.57771 | 368 ft | 19 kts | 70° |
| 2026-05-07 17:57 | 50.04723 | 8.57916 | 368 ft | 12 kts | 39° |
| 2026-05-07 17:57 | 50.04778 | 8.57922 | 364 ft | 13 kts | 340° |
| 2026-05-07 17:57 | 50.04853 | 8.57818 | 368 ft | 11 kts | 296° |
| 2026-05-07 17:57 | 50.04889 | 8.57692 | 370 ft | 15 kts | 293° |
| 2026-05-07 17:58 | 50.04923 | 8.57569 | 364 ft | 12 kts | 296° |
| 2026-05-07 17:58 | 50.04941 | 8.57507 | 362 ft | 4 kts | 303° |
| 2026-05-07 17:58 | 50.04958 | 8.57497 | 362 ft | 4 kts | 342° |
| 2026-05-07 17:58 | 50.04980 | 8.57503 | 369 ft | 3 kts | 16° |
| 2026-05-07 17:59 | 50.04989 | 8.57508 | 362 ft | 0 kts | 18° |
| 2026-05-07 17:59 | 50.05001 | 8.57515 | 362 ft | 0 kts | 21° |